Time;durP1;ratioP1;P1;durP2;ratioP2;P2;SDS_P1;SDS_P2;PMS_P1;PMS_P2;Temp;Humidity;BMP_temperature;BMP_pressure;BME280_temperature;BME280_humidity;BME280_pressure;Samples;Min_cycle;Max_cycle;Signal;HPM_P1;HPM_P2
2022/05/23 00:01:18;;;;;;;11.47;7.57;;;;;;;6.88;80.49;98648.16;2046354;87;20955;-80
2022/05/23 00:04:17;;;;;;;10.37;7.53;;;;;;;6.91;80.77;98653.00;2053842;86;21047;-81
2022/05/23 00:07:19;;;;;;;12.77;7.60;;;;;;;6.92;80.90;98646.97;2056053;87;20935;-83
2022/05/23 00:10:18;;;;;;;44.60;11.30;;;;;;;6.92;80.19;98649.56;2055228;87;21079;-83
2022/05/23 00:13:18;;;;;;;9.10;8.20;;;;;;;6.91;80.90;98647.81;2055930;87;20924;-81
2022/05/23 00:16:19;;;;;;;9.40;8.33;;;;;;;6.90;80.46;98649.07;2056326;87;20932;-82
2022/05/23 00:19:19;;;;;;;9.27;7.77;;;;;;;6.78;80.15;98648.37;2056464;87;20927;-80
2022/05/23 00:22:20;;;;;;;9.50;8.40;;;;;;;6.73;80.18;98653.86;2056316;87;20943;-80
2022/05/23 00:25:20;;;;;;;10.73;8.47;;;;;;;6.70;80.30;98653.80;2056369;87;20947;-81
2022/05/23 00:28:20;;;;;;;10.07;8.13;;;;;;;6.64;80.17;98654.94;2055884;87;20967;-80
2022/05/23 00:31:21;;;;;;;14.17;8.73;;;;;;;6.61;80.40;98652.27;2055721;87;20968;-80
2022/05/23 00:37:40;;;;;;;10.13;9.03;;;;;;;6.55;80.22;98661.20;2055426;86;20912;-82
2022/05/23 00:40:40;;;;;;;10.73;8.77;;;;;;;6.52;80.44;98658.53;2055404;87;20940;-81
2022/05/23 00:43:41;;;;;;;11.33;9.47;;;;;;;6.49;80.49;98666.23;2055453;87;20963;-80
2022/05/23 00:46:41;;;;;;;12.73;10.20;;;;;;;6.48;80.47;98667.08;2055496;85;21007;-80
2022/05/23 00:49:41;;;;;;;11.20;9.70;;;;;;;6.49;80.73;98668.83;2055702;87;21027;-80
2022/05/23 00:52:42;;;;;;;14.90;10.50;;;;;;;6.45;80.25;98670.47;2055687;87;21140;-80
2022/05/23 00:55:42;;;;;;;15.70;9.50;;;;;;;6.46;80.82;98679.12;2055502;87;20968;-81
2022/05/23 00:58:43;;;;;;;11.27;9.90;;;;;;;6.48;80.43;98673.55;2055529;86;20952;-81
2022/05/23 01:01:43;;;;;;;14.63;10.00;;;;;;;6.37;80.12;98674.16;2055701;87;20932;-82
2022/05/23 01:04:43;;;;;;;11.97;9.57;;;;;;;6.28;80.21;98673.92;2055527;85;20987;-82
2022/05/23 01:07:44;;;;;;;11.33;10.17;;;;;;;6.24;80.47;98683.75;2055438;87;20941;-83
2022/05/23 01:10:44;;;;;;;9.97;8.97;;;;;;;6.23;80.57;98675.94;2055534;87;21067;-83
2022/05/23 01:13:45;;;;;;;12.07;8.67;;;;;;;6.19;80.45;98693.55;2055482;87;21300;-83
2022/05/23 01:16:45;;;;;;;10.07;8.97;;;;;;;6.12;80.38;98689.03;2055414;85;20988;-81
2022/05/23 01:19:45;;;;;;;10.30;9.30;;;;;;;6.06;80.66;98693.60;2055110;87;20946;-81
2022/05/23 01:22:46;;;;;;;9.77;8.77;;;;;;;6.03;80.32;98694.81;2055260;87;20976;-80
2022/05/23 01:25:46;;;;;;;10.50;9.43;;;;;;;5.98;80.50;98689.92;2055353;87;20979;-81
2022/05/23 01:28:47;;;;;;;9.70;8.80;;;;;;;5.94;80.50;98690.67;2055197;87;21017;-80
2022/05/23 01:31:47;;;;;;;9.93;8.70;;;;;;;5.92;80.57;98691.05;2055373;87;20951;-81
2022/05/23 01:34:48;;;;;;;34.30;10.33;;;;;;;5.89;80.39;98686.66;2054818;87;21375;-81
2022/05/23 01:37:48;;;;;;;9.07;8.20;;;;;;;5.84;80.52;98692.10;2054849;87;21031;-81
2022/05/23 01:40:48;;;;;;;8.60;7.80;;;;;;;5.83;80.46;98685.58;2055388;87;20972;-80
2022/05/23 01:43:49;;;;;;;8.40;7.27;;;;;;;5.80;80.32;98682.91;2055331;87;20947;-80
2022/05/23 01:46:49;;;;;;;8.23;7.43;;;;;;;5.72;80.20;98683.98;2055121;85;20904;-80
2022/05/23 01:49:51;;;;;;;8.20;7.40;;;;;;;5.66;80.39;98683.81;2026775;87;20939;-81
2022/05/23 01:52:52;;;;;;;10.37;7.43;;;;;;;5.63;80.29;98689.78;2055287;87;20951;-81
2022/05/23 01:55:52;;;;;;;8.00;6.83;;;;;;;5.61;80.35;98676.33;2055213;87;21288;-81
2022/05/23 02:02:11;;;;;;;6.67;6.07;;;;;;;5.54;80.21;98682.17;2055104;86;20931;-80
2022/05/23 02:05:12;;;;;;;7.90;6.67;;;;;;;5.54;79.71;98679.58;2054671;86;21028;-81
2022/05/23 02:08:12;;;;;;;7.97;6.70;;;;;;;5.55;79.78;98681.33;2054736;87;21020;-80
2022/05/23 02:11:13;;;;;;;7.80;7.03;;;;;;;5.51;79.88;98680.37;2055057;87;20951;-80
2022/05/23 02:14:13;;;;;;;7.97;6.93;;;;;;;5.48;79.96;98684.58;2054803;87;20983;-80
2022/05/23 02:17:13;;;;;;;12.10;7.30;;;;;;;5.46;80.67;98673.30;2054885;85;21015;-79
2022/05/23 02:20:14;;;;;;;9.73;7.60;;;;;;;5.46;80.73;98676.77;2054924;87;21351;-80
2022/05/23 02:23:14;;;;;;;10.43;7.33;;;;;;;5.47;80.89;98673.34;2054868;87;20955;-80
2022/05/23 02:26:15;;;;;;;94.50;15.10;;;;;;;5.46;80.69;98676.77;2055015;87;20948;-80
2022/05/23 02:29:15;;;;;;;10.10;7.60;;;;;;;5.45;80.84;98678.89;2054893;87;21464;-80
2022/05/23 02:32:16;;;;;;;7.70;6.90;;;;;;;5.47;80.84;98675.05;2055052;87;20911;-81
2022/05/23 02:35:16;;;;;;;9.17;6.77;;;;;;;5.43;80.58;98671.08;2055257;87;20955;-80
2022/05/23 02:38:16;;;;;;;7.07;6.43;;;;;;;5.43;80.31;98672.80;2055089;87;20920;-80
2022/05/23 02:41:17;;;;;;;27.53;9.77;;;;;;;5.42;80.50;98672.33;2054688;87;21125;-81
2022/05/23 02:44:17;;;;;;;8.60;6.80;;;;;;;5.39;80.34;98674.83;2054877;87;20920;-80
2022/05/23 02:47:18;;;;;;;10.07;7.37;;;;;;;5.40;80.41;98675.30;2054966;85;21074;-79
2022/05/23 02:50:18;;;;;;;9.30;7.07;;;;;;;5.39;80.57;98667.06;2055188;87;20979;-79
2022/05/23 02:53:18;;;;;;;7.60;6.13;;;;;;;5.38;80.01;98661.02;2054879;87;20912;-79
2022/05/23 02:56:19;;;;;;;10.80;7.00;;;;;;;5.34;79.97;98660.88;2054908;87;21032;-79
2022/05/23 02:59:20;;;;;;;10.70;6.30;;;;;;;5.37;80.07;98657.09;2054337;87;21411;-80
2022/05/23 03:05:38;;;;;;;13.50;6.60;;;;;;;5.48;80.10;98659.56;2054708;86;21328;-79
2022/05/23 03:08:39;;;;;;;7.27;6.20;;;;;;;5.52;79.96;98658.82;2054730;87;21194;-79
2022/05/23 03:11:39;;;;;;;8.00;6.77;;;;;;;5.52;79.96;98658.82;2054583;87;20941;-80
2022/05/23 03:14:39;;;;;;;6.50;5.90;;;;;;;5.50;80.05;98659.20;2055180;87;21268;-80
2022/05/23 03:17:40;;;;;;;10.37;7.70;;;;;;;5.48;79.95;98654.39;2054480;87;21007;-80
2022/05/23 03:20:40;;;;;;;8.13;6.60;;;;;;;5.47;79.58;98660.40;2054870;87;21003;-81
2022/05/23 03:27:09;;;;;;;14.43;6.93;;;;;;;5.48;79.50;98656.98;2236441;79;22483;-78
2022/05/23 03:30:10;;;;;;;9.03;6.50;;;;;;;5.46;79.97;98661.23;2175337;81;21412;-80
2022/05/23 03:33:11;;;;;;;7.73;7.03;;;;;;;5.52;79.89;98656.23;2174620;82;20944;-79
2022/05/23 03:36:10;;;;;;;6.67;5.53;;;;;;;5.60;79.67;98656.03;2174323;82;21003;-80
2022/05/23 03:39:11;;;;;;;10.33;6.50;;;;;;;5.58;79.47;98657.70;2174137;82;21456;-80
2022/05/23 03:42:11;;;;;;;47.10;10.00;;;;;;;5.61;79.60;98661.67;2173918;82;20960;-80
2022/05/23 03:45:12;;;;;;;18.00;6.97;;;;;;;5.67;80.18;98661.84;2174699;82;21027;-81
2022/05/23 03:48:12;;;;;;;15.10;7.80;;;;;;;5.70;79.30;98660.63;2175435;82;20960;-81
2022/05/23 03:51:13;;;;;;;25.03;7.30;;;;;;;5.75;79.85;98661.64;2175661;82;20925;-80
2022/05/23 03:54:13;;;;;;;8.53;6.90;;;;;;;5.86;79.94;98661.06;2175766;82;20932;-82
2022/05/23 03:57:13;;;;;;;9.40;6.67;;;;;;;5.90;79.46;98655.16;2175353;82;20957;-81
2022/05/23 04:00:14;;;;;;;9.57;6.37;;;;;;;5.96;79.53;98656.62;2174920;82;21295;-81
2022/05/23 04:03:15;;;;;;;14.70;7.10;;;;;;;5.94;79.19;98655.28;2175244;82;20996;-81
2022/05/23 04:06:19;;;;;;;12.10;6.70;;;;;;;5.97;79.12;98653.19;2174898;82;21008;-82
2022/05/23 04:09:17;;;;;;;12.57;6.60;;;;;;;6.38;79.97;98654.30;2162691;82;21004;-83
2022/05/23 04:12:17;;;;;;;10.97;7.27;;;;;;;6.38;79.97;98654.30;2174124;82;20937;-82
2022/05/23 04:15:18;;;;;;;13.00;8.30;;;;;;;6.65;80.44;98652.80;2173579;82;20997;-83
2022/05/23 04:18:18;;;;;;;13.33;8.90;;;;;;;6.98;80.93;98653.63;2173584;82;21434;-82
2022/05/23 04:21:19;;;;;;;17.57;8.73;;;;;;;7.34;80.77;98650.09;2173521;82;20987;-80
2022/05/23 04:24:19;;;;;;;10.33;8.20;;;;;;;7.71;80.61;98654.75;2173491;82;20973;-83
2022/05/23 04:27:19;;;;;;;8.57;7.67;;;;;;;8.04;80.35;98656.73;2169948;81;21045;-81
2022/05/23 04:30:22;;;;;;;12.70;8.10;;;;;;;8.37;80.00;98659.52;2172430;82;20968;-80
2022/05/23 04:36:42;;;;;;;13.63;7.73;;;;;;;8.93;78.96;98657.45;2172223;81;21301;-81
2022/05/23 04:39:42;;;;;;;13.50;7.70;;;;;;;9.19;78.18;98660.44;2168972;81;21003;-83
2022/05/23 04:42:43;;;;;;;9.33;8.20;;;;;;;9.42;77.67;98665.09;2168484;82;21016;-82
2022/05/23 04:45:43;;;;;;;9.03;7.70;;;;;;;9.46;77.11;98665.16;2169459;82;20956;-80
2022/05/23 04:52:02;;;;;;;10.27;8.10;;;;;;;9.81;76.04;98670.84;2171038;81;20902;-80
2022/05/23 04:55:03;;;;;;;12.93;7.70;;;;;;;9.92;75.71;98666.19;2170069;82;21048;-81
2022/05/23 04:58:03;;;;;;;8.63;7.73;;;;;;;10.02;75.28;98669.34;2169908;81;20965;-81
2022/05/23 05:01:03;;;;;;;13.63;8.93;;;;;;;10.16;74.95;98664.72;2169081;81;20964;-79
2022/05/23 05:04:04;;;;;;;12.27;8.90;;;;;;;10.34;74.68;98667.98;2169638;82;21702;-81
2022/05/23 05:07:04;;;;;;;23.50;11.43;;;;;;;10.45;73.99;98674.64;2171307;82;21008;-80
2022/05/23 05:10:05;;;;;;;15.87;10.20;;;;;;;10.60;73.77;98666.08;2169947;81;20969;-79
2022/05/23 05:13:05;;;;;;;8.30;7.27;;;;;;;10.71;72.62;98667.92;2168677;82;21420;-79
2022/05/23 05:16:05;;;;;;;13.77;9.87;;;;;;;10.77;73.14;98662.75;2168604;82;21025;-80
2022/05/23 05:19:06;;;;;;;11.00;6.78;;;;;;;10.85;72.49;98668.03;2171644;82;20985;-80
2022/05/23 05:22:06;;;;;;;11.50;7.60;;;;;;;10.83;72.23;98666.71;2170545;82;20964;-80
2022/05/23 05:25:06;;;;;;;8.20;7.27;;;;;;;10.86;72.41;98660.64;2171324;80;21052;-80
2022/05/23 05:28:07;;;;;;;7.87;6.30;;;;;;;11.00;72.39;98658.13;2170764;81;21324;-83
2022/05/23 05:31:07;;;;;;;8.43;6.00;;;;;;;11.11;71.40;98658.64;2170736;81;21035;-82
2022/05/23 05:34:08;;;;;;;9.25;6.40;;;;;;;11.25;71.03;98653.94;2171287;82;21056;-81
2022/05/23 05:37:09;;;;;;;9.60;6.40;;;;;;;11.28;71.07;98657.48;2169541;82;20981;-80
2022/05/23 05:40:08;;;;;;;9.93;6.03;;;;;;;11.42;71.01;98663.66;2171534;82;20964;-80
2022/05/23 05:43:14;;;;;;;7.35;5.85;;;;;;;11.63;70.52;98660.27;2172855;82;20901;-80
2022/05/23 05:46:15;;;;;;;12.20;5.28;;;;;;;11.77;70.08;98662.95;2172752;82;20964;-80
2022/05/23 05:49:16;;;;;;;6.12;4.72;;;;;;;11.98;70.03;98659.58;2168618;82;20960;-80
2022/05/23 05:52:16;;;;;;;7.28;5.50;;;;;;;12.22;69.11;98660.11;2170685;82;21041;-82
2022/05/23 05:55:16;;;;;;;7.15;4.20;;;;;;;12.35;69.10;98655.34;2169906;82;21059;-82
2022/05/23 05:58:16;;;;;;;9.90;4.83;;;;;;;12.52;66.73;98660.16;2169556;82;20976;-81
2022/05/23 06:01:17;;;;;;;6.05;4.20;;;;;;;12.55;66.16;98662.78;2170381;82;21060;-80
2022/05/23 06:04:17;;;;;;;4.35;3.92;;;;;;;12.62;65.37;98666.28;2168746;82;20961;-78
2022/05/23 06:11:27;;;;;;;5.33;3.87;;;;;;;12.85;64.83;98680.69;2171365;81;21598;-82
2022/05/23 06:13:43;;;;;;;5.45;4.50;;;;;;;13.01;64.29;98685.09;2171317;81;21293;-82
2022/05/23 06:16:43;;;;;;;7.17;4.12;;;;;;;13.20;64.30;98681.61;2170766;81;20960;-81
2022/05/23 06:19:44;;;;;;;9.50;3.90;;;;;;;13.36;63.66;98687.27;2168496;82;20960;-79
2022/05/23 06:22:44;;;;;;;5.72;3.92;;;;;;;13.53;62.91;98690.28;2171123;82;21373;-83
2022/05/23 06:25:44;;;;;;;6.25;3.42;;;;;;;13.59;62.42;98686.34;2170249;82;21119;-82
2022/05/23 06:28:45;;;;;;;3.52;3.22;;;;;;;13.74;61.36;98685.42;2169860;82;20929;-82
2022/05/23 06:31:47;;;;;;;6.50;3.42;;;;;;;13.95;61.05;98694.12;2169431;82;21441;-82
2022/05/23 06:34:46;;;;;;;4.10;3.55;;;;;;;14.25;60.44;98697.03;2168551;82;20978;-81
2022/05/23 06:37:46;;;;;;;3.70;3.30;;;;;;;14.38;59.09;98691.27;2169219;82;20968;-82
2022/05/23 06:40:46;;;;;;;7.45;3.83;;;;;;;14.58;59.75;98696.44;2167790;82;20973;-81
2022/05/23 06:43:47;;;;;;;3.50;3.17;;;;;;;14.84;59.04;98696.28;2169289;82;21016;-84
2022/05/23 06:46:48;;;;;;;5.95;3.75;;;;;;;15.05;57.72;98697.87;2170224;82;21028;-79
2022/05/23 06:49:48;;;;;;;9.90;3.42;;;;;;;15.41;58.12;98694.91;2170865;82;20949;-79
2022/05/23 06:52:49;;;;;;;3.47;3.17;;;;;;;15.62;56.39;98704.84;2168196;82;20961;-81
2022/05/23 06:55:48;;;;;;;6.78;3.37;;;;;;;15.34;55.62;98704.19;2169701;82;21044;-82
2022/05/23 06:58:49;;;;;;;4.22;3.40;;;;;;;15.10;56.46;98706.59;2169377;82;21305;-84
2022/05/23 07:01:49;;;;;;;7.80;3.55;;;;;;;15.14;56.89;98706.55;2168677;82;21412;-83
2022/05/23 07:14:46;;;;;;;3.47;2.90;;;;;;;16.11;55.07;98693.30;2167845;81;20917;-81
2022/05/23 07:17:46;;;;;;;6.28;3.12;;;;;;;16.20;54.02;98690.55;2168280;82;20933;-80
2022/05/23 07:20:47;;;;;;;3.40;3.10;;;;;;;16.27;54.30;98691.34;2168572;82;21345;-82
2022/05/23 07:23:47;;;;;;;3.17;2.98;;;;;;;16.49;53.81;98686.23;2168920;82;20909;-82
2022/05/23 07:26:48;;;;;;;5.50;3.00;;;;;;;16.67;53.17;98693.02;2169197;81;21000;-82
2022/05/23 07:29:48;;;;;;;33.02;4.78;;;;;;;16.93;52.17;98692.62;2170873;82;20969;-81
2022/05/23 07:32:49;;;;;;;4.37;3.42;;;;;;;16.90;51.67;98693.53;2170486;82;20937;-81
2022/05/23 07:35:49;;;;;;;6.40;2.80;;;;;;;16.69;51.76;98693.88;2170850;82;20989;-81
2022/05/23 07:38:49;;;;;;;3.10;2.55;;;;;;;16.85;52.51;98690.11;2171744;82;21375;-81
2022/05/23 07:41:49;;;;;;;3.20;2.95;;;;;;;16.87;51.62;98694.45;2172110;82;20985;-81
2022/05/23 07:44:50;;;;;;;7.20;3.17;;;;;;;17.01;52.50;98688.96;2171267;82;21420;-79
2022/05/23 07:47:50;;;;;;;2.87;2.67;;;;;;;17.52;51.26;98686.34;2171278;82;20996;-81
2022/05/23 07:50:51;;;;;;;3.87;3.00;;;;;;;17.53;49.43;98688.53;2171481;82;20940;-83
2022/05/23 08:00:32;;;;;;;4.87;2.77;;;;;;;17.74;49.26;98667.91;2171787;81;20897;-82
2022/05/23 08:03:31;;;;;;;3.37;2.85;;;;;;;18.15;47.74;98677.62;2171369;82;21339;-82
2022/05/23 08:06:32;;;;;;;3.55;2.55;;;;;;;18.12;48.40;98676.36;2171773;82;20996;-81
2022/05/23 08:09:32;;;;;;;3.02;2.75;;;;;;;18.22;48.08;98671.79;2171416;82;21015;-83
2022/05/23 08:12:33;;;;;;;3.52;2.47;;;;;;;18.28;48.20;98672.11;2171329;82;20973;-82
2022/05/23 08:15:33;;;;;;;7.03;3.00;;;;;;;18.18;48.41;98667.44;2171152;82;21348;-82
2022/05/23 08:18:33;;;;;;;6.15;2.40;;;;;;;18.14;47.90;98671.05;2170672;82;20937;-82
2022/05/23 08:21:34;;;;;;;4.03;2.50;;;;;;;18.39;46.71;98668.32;2170292;82;20972;-82
2022/05/23 08:24:34;;;;;;;8.15;2.50;;;;;;;18.52;46.64;98667.59;2170584;82;21048;-84
2022/05/23 08:27:35;;;;;;;4.67;2.42;;;;;;;18.97;46.50;98659.05;2171223;81;20977;-81
2022/05/23 08:30:35;;;;;;;4.97;2.27;;;;;;;19.09;43.82;98660.09;2171253;82;20993;-82
2022/05/23 08:33:36;;;;;;;4.25;2.10;;;;;;;18.91;45.14;98645.98;2170251;82;21388;-82
2022/05/23 08:36:36;;;;;;;3.10;2.50;;;;;;;19.08;44.86;98648.23;2170657;82;20964;-81
2022/05/23 08:39:36;;;;;;;3.65;2.15;;;;;;;19.36;44.70;98644.41;2170625;81;21020;-81
2022/05/23 08:42:37;;;;;;;2.83;2.22;;;;;;;19.34;44.47;98644.91;2171130;82;20964;-80
2022/05/23 08:45:37;;;;;;;5.10;2.58;;;;;;;19.35;43.29;98644.00;2167620;82;20996;-81
2022/05/23 08:48:38;;;;;;;2.55;2.35;;;;;;;18.76;43.96;98646.35;2167889;82;20985;-80
2022/05/23 08:51:38;;;;;;;2.35;2.25;;;;;;;18.40;45.17;98636.16;2170557;82;20924;-83
2022/05/23 08:54:38;;;;;;;2.15;1.95;;;;;;;18.53;45.48;98632.78;2169089;82;21048;-83
2022/05/23 08:57:39;;;;;;;3.72;2.42;;;;;;;18.98;44.85;98625.08;2169141;82;21376;-83
2022/05/23 09:00:39;;;;;;;2.42;2.20;;;;;;;19.53;44.27;98625.45;2169751;82;20999;-82
2022/05/23 09:03:43;;;;;;;2.83;1.90;;;;;;;19.80;42.47;98629.11;2170353;81;20981;-81
2022/05/23 09:06:43;;;;;;;2.17;1.98;;;;;;;19.72;42.55;98623.58;2169387;82;20987;-81
2022/05/23 09:09:43;;;;;;;17.20;2.55;;;;;;;19.42;42.68;98619.10;2169691;81;20937;-82
2022/05/23 09:12:44;;;;;;;4.72;1.70;;;;;;;18.95;41.52;98621.64;2170224;82;20932;-83
2022/05/23 09:15:44;;;;;;;2.70;1.72;;;;;;;18.78;42.70;98618.09;2168889;82;21288;-83
2022/05/23 09:18:45;;;;;;;129.10;11.50;;;;;;;18.84;43.13;98618.40;2170228;81;21364;-84
2022/05/23 09:25:04;;;;;;;2.55;1.90;;;;;;;19.25;43.51;98617.36;2168163;81;21039;-82
2022/05/23 09:28:04;;;;;;;103.10;15.28;;;;;;;19.50;43.19;98609.17;2168631;81;21008;-82
2022/05/23 09:31:04;;;;;;;47.93;8.95;;;;;;;19.88;42.72;98615.19;2170106;82;21515;-80
2022/05/23 09:34:05;;;;;;;5.85;2.40;;;;;;;20.48;41.48;98599.72;2169680;81;21013;-81
2022/05/23 09:37:05;;;;;;;56.08;6.20;;;;;;;21.17;40.28;98595.66;2170533;82;20992;-81
2022/05/23 09:40:06;;;;;;;14.30;4.87;;;;;;;21.75;39.73;98589.64;2167649;82;21660;-82
2022/05/23 09:49:44;;;;;;;5.22;2.17;;;;;;;23.39;35.86;98588.34;2170539;81;20932;-80
2022/05/23 09:52:44;;;;;;;2.12;1.90;;;;;;;22.96;36.06;98580.47;2169922;82;21001;-82
2022/05/23 09:55:45;;;;;;;2.58;1.90;;;;;;;22.53;36.06;98588.84;2168245;81;20985;-82
2022/05/23 09:58:46;;;;;;;2.20;1.82;;;;;;;21.97;36.73;98587.05;2170125;82;20957;-81
2022/05/23 10:01:46;;;;;;;2.55;1.87;;;;;;;21.68;37.29;98586.81;2169372;82;20964;-79
2022/05/23 10:04:46;;;;;;;3.08;1.70;;;;;;;21.36;37.07;98586.16;2168238;82;21067;-83
2022/05/23 10:07:46;;;;;;;4.83;2.00;;;;;;;20.95;38.02;98587.58;2167175;82;20978;-82
2022/05/23 10:10:47;;;;;;;2.80;1.82;;;;;;;20.69;38.76;98584.44;2168264;82;20963;-82
2022/05/23 10:13:47;;;;;;;2.37;1.95;;;;;;;20.78;38.50;98589.44;2170716;82;21025;-81
2022/05/23 10:16:47;;;;;;;29.00;3.60;;;;;;;20.66;38.62;98580.09;2170525;82;20973;-82
2022/05/23 10:19:48;;;;;;;3.30;1.90;;;;;;;20.37;39.16;98578.81;2170269;82;20930;-82
2022/05/23 10:22:48;;;;;;;4.12;2.35;;;;;;;20.14;39.05;98572.05;2169371;82;20965;-83
2022/05/23 10:25:48;;;;;;;5.47;2.00;;;;;;;20.14;39.52;98579.54;2169326;82;21072;-82
2022/05/23 10:28:49;;;;;;;3.33;1.80;;;;;;;20.02;39.25;98578.13;2167312;81;20988;-80
2022/05/23 10:31:52;;;;;;;2.83;2.20;;;;;;;20.07;39.96;98581.97;2169547;82;20968;-82
2022/05/23 10:34:52;;;;;;;4.30;2.00;;;;;;;20.11;39.46;98582.28;2168869;82;21008;-82
2022/05/23 10:37:53;;;;;;;5.22;1.90;;;;;;;20.16;39.17;98581.69;2168559;82;21063;-81
2022/05/23 10:44:12;;;;;;;3.27;1.75;;;;;;;20.25;39.43;98584.05;2170112;81;20988;-81
2022/05/23 10:47:12;;;;;;;2.75;2.00;;;;;;;20.33;38.95;98567.44;2169257;82;21031;-82
2022/05/23 10:50:13;;;;;;;5.30;2.33;;;;;;;20.53;39.04;98570.81;2168888;82;20988;-82
2022/05/23 10:53:13;;;;;;;5.08;2.22;;;;;;;20.71;38.45;98569.80;2168455;82;20968;-83
2022/05/23 10:56:13;;;;;;;2.70;1.80;;;;;;;20.83;38.61;98567.63;2168643;82;21649;-81
2022/05/23 10:59:14;;;;;;;4.05;1.72;;;;;;;21.23;37.97;98564.95;2169269;82;21010;-80
2022/05/23 11:02:14;;;;;;;1.75;1.65;;;;;;;21.53;37.53;98567.83;2168798;82;20945;-82
2022/05/23 11:05:15;;;;;;;8.43;2.00;;;;;;;21.93;37.00;98555.73;2169270;82;21044;-83
2022/05/23 11:08:15;;;;;;;2.08;1.90;;;;;;;22.29;35.86;98549.94;2167998;82;21032;-82
2022/05/23 11:11:15;;;;;;;39.15;4.90;;;;;;;22.58;36.52;98550.98;2168934;82;20933;-81
2022/05/23 11:14:16;;;;;;;2.00;1.80;;;;;;;22.69;35.54;98554.52;2169858;82;20940;-83
2022/05/23 11:17:16;;;;;;;2.60;2.02;;;;;;;22.70;35.90;98558.91;2169195;82;21318;-82
2022/05/23 11:20:17;;;;;;;2.05;1.90;;;;;;;22.58;35.33;98553.64;2168265;82;20937;-82
2022/05/23 11:23:17;;;;;;;2.60;1.85;;;;;;;22.41;35.52;98553.43;2168842;82;20941;-81
2022/05/23 11:26:17;;;;;;;5.25;2.02;;;;;;;22.33;35.23;98550.21;2168174;81;20983;-81
2022/05/23 11:35:55;;;;;;;6.03;2.70;;;;;;;21.95;35.97;98543.26;2168475;82;20925;-83
2022/05/23 11:38:56;;;;;;;4.22;2.30;;;;;;;21.81;35.96;98538.94;2168711;82;21419;-83
2022/05/23 11:41:59;;;;;;;2.90;1.80;;;;;;;21.68;36.15;98542.98;2169114;82;20929;-84
2022/05/23 11:44:59;;;;;;;22.67;2.75;;;;;;;21.78;36.92;98541.72;2170694;82;20985;-85
2022/05/23 11:47:59;;;;;;;2.22;1.72;;;;;;;21.84;36.35;98542.80;2171964;81;21390;-85
2022/05/23 11:51:00;;;;;;;10.40;2.00;;;;;;;21.81;36.19;98548.23;2171490;81;20956;-83
2022/05/23 11:54:04;;;;;;;1.62;1.52;;;;;;;21.55;36.02;98547.86;2171019;82;20949;-84
2022/05/23 11:57:04;;;;;;;3.20;1.72;;;;;;;21.27;36.61;98549.33;2169796;82;20977;-84
2022/05/23 12:00:04;;;;;;;6.97;2.87;;;;;;;21.22;36.71;98551.25;2167909;82;20941;-83
2022/05/23 12:03:05;;;;;;;4.33;2.02;;;;;;;21.21;36.57;98548.19;2168229;82;20944;-83
2022/05/23 12:06:05;;;;;;;18.25;2.70;;;;;;;21.24;36.58;98544.99;2169998;82;21363;-82
2022/05/23 12:09:06;;;;;;;8.80;2.70;;;;;;;21.37;36.83;98536.13;2168788;81;21375;-81
2022/05/23 12:12:06;;;;;;;6.60;1.95;;;;;;;21.37;36.33;98533.47;2169213;82;20980;-82
2022/05/23 12:15:06;;;;;;;3.37;1.92;;;;;;;21.53;36.68;98526.67;2170816;82;20968;-85
2022/05/23 12:18:09;;;;;;;3.35;2.30;;;;;;;21.75;36.01;98533.39;2169656;82;20999;-83
2022/05/23 12:21:15;;;;;;;3.50;1.77;;;;;;;21.92;35.75;98530.09;2159420;82;20975;-84
2022/05/23 12:24:15;;;;;;;2.37;1.60;;;;;;;22.04;35.42;98529.64;2170555;81;21642;-83
2022/05/23 12:27:16;;;;;;;3.92;1.85;;;;;;;22.14;34.88;98520.84;2170578;80;20988;-83
2022/05/23 12:30:16;;;;;;;10.50;2.20;;;;;;;22.10;34.66;98529.41;2168093;81;20948;-82
2022/05/23 12:33:17;;;;;;;4.47;2.00;;;;;;;22.21;34.62;98523.66;2167548;82;21733;-80
2022/05/23 12:36:17;;;;;;;3.77;2.45;;;;;;;22.42;34.23;98516.14;2166897;82;20937;-82
2022/05/23 12:39:17;;;;;;;2.55;1.80;;;;;;;22.40;34.42;98514.47;2168345;82;21024;-83
2022/05/23 12:42:18;;;;;;;5.62;1.72;;;;;;;22.51;34.26;98519.75;2168453;82;20952;-82
2022/05/23 12:45:18;;;;;;;2.58;1.90;;;;;;;22.40;34.56;98515.80;2168684;82;20944;-82
2022/05/23 12:48:19;;;;;;;3.35;1.90;;;;;;;22.46;34.73;98512.88;2168408;82;21020;-77
2022/05/23 12:51:19;;;;;;;9.20;2.42;;;;;;;22.58;34.18;98512.41;2170328;82;21416;-83
2022/05/23 12:54:19;;;;;;;3.80;1.85;;;;;;;22.63;34.19;98513.08;2172118;81;21079;-84
2022/05/23 12:57:20;;;;;;;3.85;1.82;;;;;;;22.77;33.98;98507.17;2171006;82;21138;-83
2022/05/23 13:00:20;;;;;;;6.58;1.80;;;;;;;22.93;33.42;98510.08;2170077;81;20944;-83
2022/05/23 13:03:21;;;;;;;3.52;2.15;;;;;;;23.05;33.09;98497.56;2169753;81;20949;-83
2022/05/23 13:06:22;;;;;;;8.55;2.10;;;;;;;23.11;33.49;98490.16;2170322;82;21011;-81
2022/05/23 13:09:21;;;;;;;4.15;2.02;;;;;;;23.19;33.71;98482.70;2171491;81;21066;-83
2022/05/23 13:12:27;;;;;;;3.30;1.70;;;;;;;23.10;33.71;98490.23;2171051;82;20935;-83
2022/05/23 13:15:28;;;;;;;2.67;1.87;;;;;;;23.18;33.68;98485.44;2170760;81;21004;-82
2022/05/23 13:22:05;;;;;;;3.95;2.67;;;;;;;23.38;33.27;98474.75;2170634;81;20973;-82
2022/05/23 13:25:05;;;;;;;2.87;1.80;;;;;;;23.77;32.38;98468.09;2170364;81;20972;-82
2022/05/23 13:28:06;;;;;;;3.20;1.98;;;;;;;23.81;31.79;98455.48;2169855;81;20969;-80
2022/05/23 13:31:06;;;;;;;9.18;3.02;;;;;;;24.09;31.93;98453.68;2170782;82;20928;-84
2022/05/23 13:34:06;;;;;;;4.17;1.98;;;;;;;24.48;31.79;98448.23;2170148;82;21029;-84
2022/05/23 13:37:07;;;;;;;1.87;1.77;;;;;;;24.74;31.69;98447.76;2171963;81;21016;-84
2022/05/23 13:40:07;;;;;;;3.05;1.67;;;;;;;24.84;30.82;98441.94;2170213;82;21423;-85
2022/05/23 13:43:11;;;;;;;1.77;1.67;;;;;;;24.93;30.70;98443.66;2169858;81;21373;-83
2022/05/23 13:46:11;;;;;;;5.20;1.70;;;;;;;24.81;30.22;98434.09;2171466;81;20965;-82
2022/05/23 13:49:11;;;;;;;3.58;1.80;;;;;;;24.37;30.80;98442.58;2169400;81;21024;-81
2022/05/23 13:52:12;;;;;;;6.53;1.90;;;;;;;23.82;31.35;98440.75;2170902;82;21349;-83
2022/05/23 13:55:12;;;;;;;1.98;1.50;;;;;;;22.95;32.00;98436.35;2170242;82;21029;-82
2022/05/23 13:58:13;;;;;;;1.95;1.60;;;;;;;22.44;32.96;98433.17;2171124;81;20976;-83
2022/05/23 14:01:13;;;;;;;3.33;3.02;;;;;;;22.03;33.73;98434.03;2170200;82;21009;-84
2022/05/23 14:04:13;;;;;;;4.03;1.87;;;;;;;21.64;34.15;98439.95;2169843;82;21004;-85
2022/05/23 14:07:20;;;;;;;2.47;1.72;;;;;;;21.33;34.47;98436.28;2171411;82;21373;-83
2022/05/23 14:10:22;;;;;;;2.92;1.70;;;;;;;21.19;35.15;98425.28;2170673;82;21059;-83
2022/05/23 14:13:20;;;;;;;3.45;1.40;;;;;;;21.51;35.12;98423.63;2170527;82;21056;-84
2022/05/23 14:16:21;;;;;;;2.05;1.90;;;;;;;21.89;35.16;98421.27;2168915;82;20948;-84
2022/05/23 14:19:21;;;;;;;5.15;2.00;;;;;;;22.29;34.41;98426.30;2169121;82;20913;-82
2022/05/23 14:22:22;;;;;;;4.65;1.80;;;;;;;22.50;33.23;98421.41;2169937;81;21412;-84
2022/05/23 14:25:22;;;;;;;10.13;2.05;;;;;;;22.62;32.59;98424.89;2170584;82;20960;-83
2022/05/23 14:28:22;;;;;;;14.98;2.62;;;;;;;22.59;32.56;98425.03;2168753;81;21004;-83
2022/05/23 14:31:23;;;;;;;3.02;1.80;;;;;;;22.73;32.67;98415.11;2171610;82;21262;-82
2022/05/23 14:34:23;;;;;;;3.47;1.72;;;;;;;22.92;32.50;98408.08;2171204;81;21006;-83
2022/05/23 14:37:24;;;;;;;8.38;1.87;;;;;;;23.07;32.43;98420.69;2170811;82;20906;-81
2022/05/23 14:40:24;;;;;;;5.15;2.20;;;;;;;23.34;32.17;98412.38;2169048;82;21335;-83
2022/05/23 14:43:24;;;;;;;2.30;1.90;;;;;;;23.57;32.27;98412.22;2173492;82;21040;-81
2022/05/23 14:46:25;;;;;;;3.60;1.90;;;;;;;23.80;32.14;98407.12;2172151;82;21047;-82
2022/05/23 14:49:25;;;;;;;6.67;2.10;;;;;;;23.90;31.54;98403.53;2173183;82;21408;-84
2022/05/23 14:52:26;;;;;;;8.00;2.42;;;;;;;24.03;30.75;98408.19;2173616;81;20943;-83
2022/05/23 14:55:26;;;;;;;1.70;1.60;;;;;;;24.10;30.25;98400.75;2172285;81;20953;-84
2022/05/23 15:01:45;;;;;;;2.80;1.90;;;;;;;24.16;30.52;98384.44;2170553;81;21003;-83
2022/05/23 15:04:46;;;;;;;3.67;1.98;;;;;;;24.33;30.91;98395.19;2169831;82;21351;-80
2022/05/23 15:07:46;;;;;;;7.55;2.12;;;;;;;24.40;30.82;98391.27;2170385;82;20956;-80
2022/05/23 15:10:46;;;;;;;2.22;2.00;;;;;;;24.37;29.60;98388.75;2171093;82;21017;-79
2022/05/23 15:13:47;;;;;;;2.60;1.90;;;;;;;23.87;30.08;98391.69;2171378;82;21329;-81
2022/05/23 15:16:47;;;;;;;7.42;5.05;;;;;;;23.37;30.02;98383.80;2168700;82;21463;-82